sensor_id;sensor_type;location;lat;lon;timestamp;P1;durP1;ratioP1;P2;durP2;ratioP2
14599;SDS011;7386;45.586;12.854;2022-10-22T00:01:03;24.90;;;9.45;;
14599;SDS011;7386;45.586;12.854;2022-10-22T00:03:31;22.33;;;9.25;;
14599;SDS011;7386;45.586;12.854;2022-10-22T00:06:00;17.65;;;9.50;;
14599;SDS011;7386;45.586;12.854;2022-10-22T00:08:30;26.40;;;9.95;;
14599;SDS011;7386;45.586;12.854;2022-10-22T00:10:58;24.48;;;9.80;;
14599;SDS011;7386;45.586;12.854;2022-10-22T00:13:33;21.90;;;9.60;;
14599;SDS011;7386;45.586;12.854;2022-10-22T00:16:02;28.55;;;9.95;;
14599;SDS011;7386;45.586;12.854;2022-10-22T00:18:30;25.35;;;10.43;;
14599;SDS011;7386;45.586;12.854;2022-10-22T00:20:58;22.23;;;10.05;;
14599;SDS011;7386;45.586;12.854;2022-10-22T00:23:26;24.92;;;10.75;;
14599;SDS011;7386;45.586;12.854;2022-10-22T00:25:56;26.85;;;11.82;;
14599;SDS011;7386;45.586;12.854;2022-10-22T00:28:24;31.27;;;11.38;;
14599;SDS011;7386;45.586;12.854;2022-10-22T00:30:56;31.30;;;11.68;;
14599;SDS011;7386;45.586;12.854;2022-10-22T00:33:24;27.65;;;12.07;;
14599;SDS011;7386;45.586;12.854;2022-10-22T00:35:53;40.25;;;12.10;;
14599;SDS011;7386;45.586;12.854;2022-10-22T00:38:22;32.72;;;12.15;;
14599;SDS011;7386;45.586;12.854;2022-10-22T00:40:50;35.60;;;11.27;;
14599;SDS011;7386;45.586;12.854;2022-10-22T00:43:20;28.73;;;11.32;;
14599;SDS011;7386;45.586;12.854;2022-10-22T00:45:48;37.25;;;13.45;;
14599;SDS011;7386;45.586;12.854;2022-10-22T00:48:17;29.42;;;12.20;;
14599;SDS011;7386;45.586;12.854;2022-10-22T00:50:48;39.17;;;12.88;;
14599;SDS011;7386;45.586;12.854;2022-10-22T00:53:21;30.92;;;12.18;;
14599;SDS011;7386;45.586;12.854;2022-10-22T00:55:53;34.55;;;13.55;;
14599;SDS011;7386;45.586;12.854;2022-10-22T00:58:23;34.38;;;13.30;;
14599;SDS011;7386;45.586;12.854;2022-10-22T01:00:54;43.78;;;13.20;;
14599;SDS011;7386;45.586;12.854;2022-10-22T01:03:24;40.40;;;13.02;;
14599;SDS011;7386;45.586;12.854;2022-10-22T01:05:53;35.78;;;14.93;;
14599;SDS011;7386;45.586;12.854;2022-10-22T01:08:25;33.15;;;13.80;;
14599;SDS011;7386;45.586;12.854;2022-10-22T01:11:02;41.08;;;14.35;;
14599;SDS011;7386;45.586;12.854;2022-10-22T01:13:42;40.05;;;13.70;;
14599;SDS011;7386;45.586;12.854;2022-10-22T01:16:16;36.63;;;13.52;;
14599;SDS011;7386;45.586;12.854;2022-10-22T01:18:50;38.83;;;15.07;;
14599;SDS011;7386;45.586;12.854;2022-10-22T01:21:29;33.50;;;13.45;;
14599;SDS011;7386;45.586;12.854;2022-10-22T01:24:10;44.17;;;14.57;;
14599;SDS011;7386;45.586;12.854;2022-10-22T01:27:14;36.45;;;13.77;;
14599;SDS011;7386;45.586;12.854;2022-10-22T01:29:56;34.38;;;14.25;;
14599;SDS011;7386;45.586;12.854;2022-10-22T01:32:26;36.13;;;14.50;;
14599;SDS011;7386;45.586;12.854;2022-10-22T01:34:59;36.17;;;14.10;;
14599;SDS011;7386;45.586;12.854;2022-10-22T01:37:30;45.22;;;14.88;;
14599;SDS011;7386;45.586;12.854;2022-10-22T01:40:02;34.88;;;14.23;;
14599;SDS011;7386;45.586;12.854;2022-10-22T01:42:32;31.30;;;14.70;;
14599;SDS011;7386;45.586;12.854;2022-10-22T01:45:01;36.13;;;14.75;;
14599;SDS011;7386;45.586;12.854;2022-10-22T01:47:38;41.15;;;14.55;;
14599;SDS011;7386;45.586;12.854;2022-10-22T01:50:19;43.72;;;15.52;;
14599;SDS011;7386;45.586;12.854;2022-10-22T01:53:04;49.15;;;15.05;;
14599;SDS011;7386;45.586;12.854;2022-10-22T01:55:42;28.70;;;13.90;;
14599;SDS011;7386;45.586;12.854;2022-10-22T01:58:22;35.95;;;15.43;;
14599;SDS011;7386;45.586;12.854;2022-10-22T02:01:03;41.42;;;14.25;;
14599;SDS011;7386;45.586;12.854;2022-10-22T02:03:37;40.50;;;15.10;;
14599;SDS011;7386;45.586;12.854;2022-10-22T02:06:08;44.05;;;15.65;;
14599;SDS011;7386;45.586;12.854;2022-10-22T02:08:42;41.03;;;14.82;;
14599;SDS011;7386;45.586;12.854;2022-10-22T02:11:13;43.13;;;15.63;;
14599;SDS011;7386;45.586;12.854;2022-10-22T02:13:43;38.90;;;15.02;;
14599;SDS011;7386;45.586;12.854;2022-10-22T02:16:15;51.95;;;14.93;;
14599;SDS011;7386;45.586;12.854;2022-10-22T02:18:47;46.60;;;15.65;;
14599;SDS011;7386;45.586;12.854;2022-10-22T02:21:19;44.00;;;15.00;;
14599;SDS011;7386;45.586;12.854;2022-10-22T02:23:47;36.40;;;14.63;;
14599;SDS011;7386;45.586;12.854;2022-10-22T02:26:20;32.75;;;14.65;;
14599;SDS011;7386;45.586;12.854;2022-10-22T02:28:55;42.90;;;14.27;;
14599;SDS011;7386;45.586;12.854;2022-10-22T02:31:28;43.13;;;15.18;;
14599;SDS011;7386;45.586;12.854;2022-10-22T02:34:00;42.58;;;15.20;;
14599;SDS011;7386;45.586;12.854;2022-10-22T02:36:33;44.60;;;15.85;;
14599;SDS011;7386;45.586;12.854;2022-10-22T02:39:03;39.72;;;14.75;;
14599;SDS011;7386;45.586;12.854;2022-10-22T02:41:34;42.88;;;15.32;;
14599;SDS011;7386;45.586;12.854;2022-10-22T02:44:06;45.40;;;15.57;;
14599;SDS011;7386;45.586;12.854;2022-10-22T02:46:37;35.15;;;15.35;;
14599;SDS011;7386;45.586;12.854;2022-10-22T02:49:06;34.60;;;14.23;;
14599;SDS011;7386;45.586;12.854;2022-10-22T02:51:34;41.47;;;15.32;;
14599;SDS011;7386;45.586;12.854;2022-10-22T02:54:03;43.20;;;14.77;;
14599;SDS011;7386;45.586;12.854;2022-10-22T02:56:31;42.70;;;14.63;;
14599;SDS011;7386;45.586;12.854;2022-10-22T02:59:00;32.60;;;14.48;;
14599;SDS011;7386;45.586;12.854;2022-10-22T03:01:28;39.60;;;14.48;;
14599;SDS011;7386;45.586;12.854;2022-10-22T03:03:57;41.92;;;15.32;;
14599;SDS011;7386;45.586;12.854;2022-10-22T03:06:26;40.72;;;15.63;;
14599;SDS011;7386;45.586;12.854;2022-10-22T03:08:54;39.33;;;14.70;;
14599;SDS011;7386;45.586;12.854;2022-10-22T03:11:24;34.35;;;14.52;;
14599;SDS011;7386;45.586;12.854;2022-10-22T03:13:52;36.35;;;15.18;;
14599;SDS011;7386;45.586;12.854;2022-10-22T03:16:20;34.28;;;14.60;;
14599;SDS011;7386;45.586;12.854;2022-10-22T03:18:48;40.15;;;14.85;;
14599;SDS011;7386;45.586;12.854;2022-10-22T03:21:20;38.35;;;14.93;;
14599;SDS011;7386;45.586;12.854;2022-10-22T03:23:54;28.77;;;13.07;;
14599;SDS011;7386;45.586;12.854;2022-10-22T03:26:23;45.75;;;13.95;;
14599;SDS011;7386;45.586;12.854;2022-10-22T03:28:52;34.05;;;14.90;;
14599;SDS011;7386;45.586;12.854;2022-10-22T03:31:21;35.97;;;13.95;;
14599;SDS011;7386;45.586;12.854;2022-10-22T03:33:49;33.03;;;13.32;;
14599;SDS011;7386;45.586;12.854;2022-10-22T03:36:17;36.90;;;13.85;;
14599;SDS011;7386;45.586;12.854;2022-10-22T03:38:46;38.90;;;13.98;;
14599;SDS011;7386;45.586;12.854;2022-10-22T03:41:15;36.25;;;14.18;;
14599;SDS011;7386;45.586;12.854;2022-10-22T03:43:43;36.10;;;13.93;;
14599;SDS011;7386;45.586;12.854;2022-10-22T03:46:15;33.47;;;13.77;;
14599;SDS011;7386;45.586;12.854;2022-10-22T03:48:43;34.55;;;13.88;;
14599;SDS011;7386;45.586;12.854;2022-10-22T03:51:11;34.58;;;14.13;;
14599;SDS011;7386;45.586;12.854;2022-10-22T03:53:40;45.13;;;14.48;;
14599;SDS011;7386;45.586;12.854;2022-10-22T03:56:09;34.22;;;13.45;;
14599;SDS011;7386;45.586;12.854;2022-10-22T03:58:39;39.28;;;14.13;;
14599;SDS011;7386;45.586;12.854;2022-10-22T04:01:08;34.25;;;13.43;;
14599;SDS011;7386;45.586;12.854;2022-10-22T04:03:38;34.22;;;12.75;;
14599;SDS011;7386;45.586;12.854;2022-10-22T04:06:08;34.10;;;13.35;;
14599;SDS011;7386;45.586;12.854;2022-10-22T04:08:38;30.92;;;12.90;;
14599;SDS011;7386;45.586;12.854;2022-10-22T04:11:07;30.23;;;11.93;;
14599;SDS011;7386;45.586;12.854;2022-10-22T04:13:38;24.55;;;12.25;;
14599;SDS011;7386;45.586;12.854;2022-10-22T04:16:07;27.08;;;11.48;;
14599;SDS011;7386;45.586;12.854;2022-10-22T04:18:35;26.23;;;11.88;;
14599;SDS011;7386;45.586;12.854;2022-10-22T04:21:04;27.95;;;12.02;;
14599;SDS011;7386;45.586;12.854;2022-10-22T04:23:33;28.65;;;12.85;;
14599;SDS011;7386;45.586;12.854;2022-10-22T04:26:03;22.38;;;11.52;;
14599;SDS011;7386;45.586;12.854;2022-10-22T04:28:32;27.50;;;11.75;;
14599;SDS011;7386;45.586;12.854;2022-10-22T04:31:07;25.80;;;12.20;;
14599;SDS011;7386;45.586;12.854;2022-10-22T04:33:36;28.77;;;12.52;;
14599;SDS011;7386;45.586;12.854;2022-10-22T04:36:05;25.63;;;12.38;;
14599;SDS011;7386;45.586;12.854;2022-10-22T04:38:34;27.92;;;11.63;;
14599;SDS011;7386;45.586;12.854;2022-10-22T04:41:10;27.00;;;12.43;;
14599;SDS011;7386;45.586;12.854;2022-10-22T04:43:39;27.92;;;12.00;;
14599;SDS011;7386;45.586;12.854;2022-10-22T04:46:09;28.23;;;12.15;;
14599;SDS011;7386;45.586;12.854;2022-10-22T04:48:39;26.60;;;11.27;;
14599;SDS011;7386;45.586;12.854;2022-10-22T04:51:10;24.35;;;11.82;;
14599;SDS011;7386;45.586;12.854;2022-10-22T04:53:39;24.58;;;12.02;;
14599;SDS011;7386;45.586;12.854;2022-10-22T04:56:08;23.95;;;10.63;;
14599;SDS011;7386;45.586;12.854;2022-10-22T04:58:37;18.58;;;9.88;;
14599;SDS011;7386;45.586;12.854;2022-10-22T05:01:11;27.55;;;10.52;;
14599;SDS011;7386;45.586;12.854;2022-10-22T05:03:42;20.05;;;10.60;;
14599;SDS011;7386;45.586;12.854;2022-10-22T05:06:11;23.10;;;10.55;;
14599;SDS011;7386;45.586;12.854;2022-10-22T05:08:40;24.75;;;11.32;;
14599;SDS011;7386;45.586;12.854;2022-10-22T05:11:09;23.98;;;10.10;;
14599;SDS011;7386;45.586;12.854;2022-10-22T05:13:38;20.67;;;10.27;;
14599;SDS011;7386;45.586;12.854;2022-10-22T05:16:06;19.17;;;10.35;;
14599;SDS011;7386;45.586;12.854;2022-10-22T05:18:36;24.52;;;10.45;;
14599;SDS011;7386;45.586;12.854;2022-10-22T05:21:07;18.65;;;11.07;;
14599;SDS011;7386;45.586;12.854;2022-10-22T05:23:37;23.08;;;10.75;;
14599;SDS011;7386;45.586;12.854;2022-10-22T05:26:06;21.90;;;10.68;;
14599;SDS011;7386;45.586;12.854;2022-10-22T05:28:35;27.67;;;10.98;;
14599;SDS011;7386;45.586;12.854;2022-10-22T05:31:04;26.05;;;10.80;;
14599;SDS011;7386;45.586;12.854;2022-10-22T05:33:33;21.77;;;11.55;;
14599;SDS011;7386;45.586;12.854;2022-10-22T05:36:04;18.85;;;10.75;;
14599;SDS011;7386;45.586;12.854;2022-10-22T05:38:33;24.70;;;12.13;;
14599;SDS011;7386;45.586;12.854;2022-10-22T05:41:02;30.27;;;12.23;;
14599;SDS011;7386;45.586;12.854;2022-10-22T05:43:32;31.08;;;13.15;;
14599;SDS011;7386;45.586;12.854;2022-10-22T05:46:01;33.55;;;13.35;;
14599;SDS011;7386;45.586;12.854;2022-10-22T05:48:30;27.05;;;12.52;;
14599;SDS011;7386;45.586;12.854;2022-10-22T05:51:00;37.95;;;13.23;;
14599;SDS011;7386;45.586;12.854;2022-10-22T05:53:31;30.25;;;14.07;;
14599;SDS011;7386;45.586;12.854;2022-10-22T05:56:01;33.63;;;12.70;;
14599;SDS011;7386;45.586;12.854;2022-10-22T05:58:30;29.27;;;11.80;;
14599;SDS011;7386;45.586;12.854;2022-10-22T06:01:02;27.20;;;12.23;;
14599;SDS011;7386;45.586;12.854;2022-10-22T06:03:31;22.15;;;11.88;;
14599;SDS011;7386;45.586;12.854;2022-10-22T06:05:59;24.25;;;11.98;;
14599;SDS011;7386;45.586;12.854;2022-10-22T06:08:29;25.20;;;12.18;;
14599;SDS011;7386;45.586;12.854;2022-10-22T06:10:59;28.30;;;12.35;;
14599;SDS011;7386;45.586;12.854;2022-10-22T06:13:27;32.22;;;12.45;;
14599;SDS011;7386;45.586;12.854;2022-10-22T06:15:58;31.15;;;12.18;;
14599;SDS011;7386;45.586;12.854;2022-10-22T06:18:26;32.15;;;12.52;;
14599;SDS011;7386;45.586;12.854;2022-10-22T06:20:54;30.33;;;12.73;;
14599;SDS011;7386;45.586;12.854;2022-10-22T06:23:22;24.27;;;11.75;;
14599;SDS011;7386;45.586;12.854;2022-10-22T06:25:58;28.92;;;12.18;;
14599;SDS011;7386;45.586;12.854;2022-10-22T06:28:27;31.35;;;12.70;;
14599;SDS011;7386;45.586;12.854;2022-10-22T06:30:56;26.08;;;11.93;;
14599;SDS011;7386;45.586;12.854;2022-10-22T06:33:25;32.30;;;12.35;;
14599;SDS011;7386;45.586;12.854;2022-10-22T06:35:53;26.70;;;11.75;;
14599;SDS011;7386;45.586;12.854;2022-10-22T06:38:21;35.00;;;11.98;;
14599;SDS011;7386;45.586;12.854;2022-10-22T06:40:51;25.92;;;11.02;;
14599;SDS011;7386;45.586;12.854;2022-10-22T06:43:21;29.77;;;11.02;;
14599;SDS011;7386;45.586;12.854;2022-10-22T06:45:49;22.42;;;10.80;;
14599;SDS011;7386;45.586;12.854;2022-10-22T06:48:17;21.52;;;10.30;;
14599;SDS011;7386;45.586;12.854;2022-10-22T06:50:45;23.90;;;9.80;;
14599;SDS011;7386;45.586;12.854;2022-10-22T06:53:13;18.50;;;9.95;;
14599;SDS011;7386;45.586;12.854;2022-10-22T06:55:41;24.70;;;10.60;;
14599;SDS011;7386;45.586;12.854;2022-10-22T06:58:10;27.02;;;11.48;;
14599;SDS011;7386;45.586;12.854;2022-10-22T07:00:39;27.27;;;11.18;;
14599;SDS011;7386;45.586;12.854;2022-10-22T07:03:08;26.38;;;10.27;;
14599;SDS011;7386;45.586;12.854;2022-10-22T07:05:38;26.23;;;11.18;;
14599;SDS011;7386;45.586;12.854;2022-10-22T07:08:07;26.15;;;11.35;;
14599;SDS011;7386;45.586;12.854;2022-10-22T07:10:35;27.20;;;11.80;;
14599;SDS011;7386;45.586;12.854;2022-10-22T07:13:04;32.10;;;12.65;;
14599;SDS011;7386;45.586;12.854;2022-10-22T07:15:32;33.00;;;12.32;;
14599;SDS011;7386;45.586;12.854;2022-10-22T07:18:01;29.48;;;10.73;;
14599;SDS011;7386;45.586;12.854;2022-10-22T07:20:30;32.45;;;11.38;;
14599;SDS011;7386;45.586;12.854;2022-10-22T07:22:58;28.70;;;11.50;;
14599;SDS011;7386;45.586;12.854;2022-10-22T07:25:26;28.00;;;10.88;;
14599;SDS011;7386;45.586;12.854;2022-10-22T07:27:54;26.02;;;10.98;;
14599;SDS011;7386;45.586;12.854;2022-10-22T07:30:23;25.13;;;12.23;;
14599;SDS011;7386;45.586;12.854;2022-10-22T07:32:51;22.55;;;10.57;;
14599;SDS011;7386;45.586;12.854;2022-10-22T07:35:20;31.83;;;10.93;;
14599;SDS011;7386;45.586;12.854;2022-10-22T07:37:49;32.78;;;10.88;;
14599;SDS011;7386;45.586;12.854;2022-10-22T07:40:17;31.95;;;11.82;;
14599;SDS011;7386;45.586;12.854;2022-10-22T07:42:45;32.67;;;11.18;;
14599;SDS011;7386;45.586;12.854;2022-10-22T07:45:13;28.38;;;11.25;;
14599;SDS011;7386;45.586;12.854;2022-10-22T07:47:42;28.58;;;11.10;;
14599;SDS011;7386;45.586;12.854;2022-10-22T07:50:10;27.60;;;11.63;;
14599;SDS011;7386;45.586;12.854;2022-10-22T07:52:39;32.63;;;11.15;;
14599;SDS011;7386;45.586;12.854;2022-10-22T07:55:09;25.85;;;11.52;;
14599;SDS011;7386;45.586;12.854;2022-10-22T07:57:38;33.72;;;11.85;;
14599;SDS011;7386;45.586;12.854;2022-10-22T08:00:07;27.00;;;11.68;;
14599;SDS011;7386;45.586;12.854;2022-10-22T08:02:36;26.00;;;11.07;;
14599;SDS011;7386;45.586;12.854;2022-10-22T08:05:05;29.13;;;11.25;;
14599;SDS011;7386;45.586;12.854;2022-10-22T08:07:34;31.00;;;10.10;;
14599;SDS011;7386;45.586;12.854;2022-10-22T08:10:04;25.85;;;10.85;;
14599;SDS011;7386;45.586;12.854;2022-10-22T08:12:34;26.58;;;10.93;;
14599;SDS011;7386;45.586;12.854;2022-10-22T08:15:03;24.27;;;10.50;;
14599;SDS011;7386;45.586;12.854;2022-10-22T08:17:32;26.38;;;11.27;;
14599;SDS011;7386;45.586;12.854;2022-10-22T08:22:51;25.23;;;10.20;;
14599;SDS011;7386;45.586;12.854;2022-10-22T08:25:21;25.92;;;11.35;;
14599;SDS011;7386;45.586;12.854;2022-10-22T08:27:49;28.95;;;11.43;;
14599;SDS011;7386;45.586;12.854;2022-10-22T08:30:18;33.53;;;11.70;;
14599;SDS011;7386;45.586;12.854;2022-10-22T08:32:46;27.98;;;10.07;;
14599;SDS011;7386;45.586;12.854;2022-10-22T08:35:19;38.20;;;11.98;;
14599;SDS011;7386;45.586;12.854;2022-10-22T08:37:47;35.55;;;11.63;;
14599;SDS011;7386;45.586;12.854;2022-10-22T08:40:19;24.60;;;10.90;;
14599;SDS011;7386;45.586;12.854;2022-10-22T08:43:03;25.85;;;11.75;;
14599;SDS011;7386;45.586;12.854;2022-10-22T08:45:50;35.30;;;12.20;;
14599;SDS011;7386;45.586;12.854;2022-10-22T08:48:29;33.08;;;11.48;;
14599;SDS011;7386;45.586;12.854;2022-10-22T08:51:06;34.80;;;11.85;;
14599;SDS011;7386;45.586;12.854;2022-10-22T08:53:40;30.45;;;11.43;;
14599;SDS011;7386;45.586;12.854;2022-10-22T08:56:17;26.25;;;10.40;;
14599;SDS011;7386;45.586;12.854;2022-10-22T08:58:49;40.83;;;12.38;;
14599;SDS011;7386;45.586;12.854;2022-10-22T09:01:26;38.03;;;12.20;;
14599;SDS011;7386;45.586;12.854;2022-10-22T09:04:00;35.10;;;11.88;;
14599;SDS011;7386;45.586;12.854;2022-10-22T09:06:36;34.15;;;11.90;;
14599;SDS011;7386;45.586;12.854;2022-10-22T09:09:10;36.30;;;12.35;;
14599;SDS011;7386;45.586;12.854;2022-10-22T09:11:44;32.95;;;11.90;;
14599;SDS011;7386;45.586;12.854;2022-10-22T09:14:14;36.70;;;11.38;;
14599;SDS011;7386;45.586;12.854;2022-10-22T09:16:50;31.70;;;11.45;;
14599;SDS011;7386;45.586;12.854;2022-10-22T09:19:39;29.42;;;11.07;;
14599;SDS011;7386;45.586;12.854;2022-10-22T09:22:18;45.80;;;13.70;;
14599;SDS011;7386;45.586;12.854;2022-10-22T09:24:56;43.42;;;12.85;;
14599;SDS011;7386;45.586;12.854;2022-10-22T09:27:29;44.05;;;12.55;;
14599;SDS011;7386;45.586;12.854;2022-10-22T09:29:59;40.17;;;13.10;;
14599;SDS011;7386;45.586;12.854;2022-10-22T09:32:27;42.97;;;13.20;;
14599;SDS011;7386;45.586;12.854;2022-10-22T09:34:56;49.83;;;13.20;;
14599;SDS011;7386;45.586;12.854;2022-10-22T09:37:27;48.40;;;13.98;;
14599;SDS011;7386;45.586;12.854;2022-10-22T09:39:56;32.67;;;11.77;;
14599;SDS011;7386;45.586;12.854;2022-10-22T09:42:31;40.05;;;12.02;;
14599;SDS011;7386;45.586;12.854;2022-10-22T09:45:00;34.35;;;12.07;;
14599;SDS011;7386;45.586;12.854;2022-10-22T09:47:31;45.95;;;13.27;;
14599;SDS011;7386;45.586;12.854;2022-10-22T09:50:25;48.92;;;12.95;;
14599;SDS011;7386;45.586;12.854;2022-10-22T09:53:00;40.47;;;13.75;;
14599;SDS011;7386;45.586;12.854;2022-10-22T09:55:31;36.38;;;13.00;;
14599;SDS011;7386;45.586;12.854;2022-10-22T09:58:01;41.60;;;13.02;;
14599;SDS011;7386;45.586;12.854;2022-10-22T10:00:29;35.00;;;12.70;;
14599;SDS011;7386;45.586;12.854;2022-10-22T10:02:58;34.42;;;12.55;;
14599;SDS011;7386;45.586;12.854;2022-10-22T10:05:29;40.03;;;12.45;;
14599;SDS011;7386;45.586;12.854;2022-10-22T10:07:58;38.83;;;12.85;;
14599;SDS011;7386;45.586;12.854;2022-10-22T10:10:36;36.97;;;12.05;;
14599;SDS011;7386;45.586;12.854;2022-10-22T10:13:24;38.53;;;11.65;;
14599;SDS011;7386;45.586;12.854;2022-10-22T10:16:03;49.45;;;12.63;;
14599;SDS011;7386;45.586;12.854;2022-10-22T10:18:42;33.13;;;12.05;;
14599;SDS011;7386;45.586;12.854;2022-10-22T10:21:22;31.55;;;12.25;;
14599;SDS011;7386;45.586;12.854;2022-10-22T10:24:01;35.85;;;11.95;;
14599;SDS011;7386;45.586;12.854;2022-10-22T10:26:36;35.00;;;12.38;;
14599;SDS011;7386;45.586;12.854;2022-10-22T10:29:15;40.78;;;12.35;;
14599;SDS011;7386;45.586;12.854;2022-10-22T10:31:58;35.28;;;12.38;;
14599;SDS011;7386;45.586;12.854;2022-10-22T10:34:50;37.78;;;11.85;;
14599;SDS011;7386;45.586;12.854;2022-10-22T10:37:25;36.22;;;12.00;;
14599;SDS011;7386;45.586;12.854;2022-10-22T10:40:03;35.53;;;11.02;;
14599;SDS011;7386;45.586;12.854;2022-10-22T10:42:42;33.35;;;11.52;;
14599;SDS011;7386;45.586;12.854;2022-10-22T10:45:17;41.83;;;11.70;;
14599;SDS011;7386;45.586;12.854;2022-10-22T10:47:55;40.88;;;11.23;;
14599;SDS011;7386;45.586;12.854;2022-10-22T10:50:38;36.58;;;11.75;;
14599;SDS011;7386;45.586;12.854;2022-10-22T10:53:19;43.33;;;11.88;;
14599;SDS011;7386;45.586;12.854;2022-10-22T10:55:56;50.78;;;12.95;;
14599;SDS011;7386;45.586;12.854;2022-10-22T10:58:33;30.38;;;11.05;;
14599;SDS011;7386;45.586;12.854;2022-10-22T11:01:14;35.60;;;11.40;;
14599;SDS011;7386;45.586;12.854;2022-10-22T11:03:59;40.65;;;11.95;;
14599;SDS011;7386;45.586;12.854;2022-10-22T11:06:40;38.25;;;11.52;;
14599;SDS011;7386;45.586;12.854;2022-10-22T11:09:17;32.45;;;11.00;;
14599;SDS011;7386;45.586;12.854;2022-10-22T11:11:54;32.75;;;10.68;;
14599;SDS011;7386;45.586;12.854;2022-10-22T11:14:27;35.05;;;11.63;;
14599;SDS011;7386;45.586;12.854;2022-10-22T11:17:00;31.08;;;11.35;;
14599;SDS011;7386;45.586;12.854;2022-10-22T11:19:33;38.65;;;12.10;;
14599;SDS011;7386;45.586;12.854;2022-10-22T11:22:19;33.20;;;11.52;;
14599;SDS011;7386;45.586;12.854;2022-10-22T11:24:54;31.38;;;11.13;;
14599;SDS011;7386;45.586;12.854;2022-10-22T11:27:28;32.78;;;11.63;;
14599;SDS011;7386;45.586;12.854;2022-10-22T11:30:04;29.15;;;12.35;;
14599;SDS011;7386;45.586;12.854;2022-10-22T11:32:39;29.27;;;10.68;;
14599;SDS011;7386;45.586;12.854;2022-10-22T11:35:11;32.40;;;11.60;;
14599;SDS011;7386;45.586;12.854;2022-10-22T11:37:42;41.38;;;11.77;;
14599;SDS011;7386;45.586;12.854;2022-10-22T11:40:14;36.22;;;12.38;;
14599;SDS011;7386;45.586;12.854;2022-10-22T11:42:47;30.80;;;12.07;;
14599;SDS011;7386;45.586;12.854;2022-10-22T11:45:27;31.83;;;11.98;;
14599;SDS011;7386;45.586;12.854;2022-10-22T11:48:05;32.67;;;12.80;;
14599;SDS011;7386;45.586;12.854;2022-10-22T11:50:48;35.95;;;12.48;;
14599;SDS011;7386;45.586;12.854;2022-10-22T11:53:20;34.10;;;12.00;;
14599;SDS011;7386;45.586;12.854;2022-10-22T11:55:57;38.10;;;13.25;;
14599;SDS011;7386;45.586;12.854;2022-10-22T11:58:32;29.20;;;11.93;;
14599;SDS011;7386;45.586;12.854;2022-10-22T12:01:20;36.90;;;12.07;;
14599;SDS011;7386;45.586;12.854;2022-10-22T12:06:52;43.33;;;12.43;;
14599;SDS011;7386;45.586;12.854;2022-10-22T12:09:25;44.42;;;12.45;;
14599;SDS011;7386;45.586;12.854;2022-10-22T12:12:01;47.30;;;13.18;;
14599;SDS011;7386;45.586;12.854;2022-10-22T12:14:37;36.70;;;12.35;;
14599;SDS011;7386;45.586;12.854;2022-10-22T12:17:19;34.45;;;12.48;;
14599;SDS011;7386;45.586;12.854;2022-10-22T12:19:50;29.63;;;11.45;;
14599;SDS011;7386;45.586;12.854;2022-10-22T12:22:28;30.23;;;12.15;;
14599;SDS011;7386;45.586;12.854;2022-10-22T12:24:59;32.13;;;12.27;;
14599;SDS011;7386;45.586;12.854;2022-10-22T12:27:33;38.78;;;12.57;;
14599;SDS011;7386;45.586;12.854;2022-10-22T12:30:12;33.85;;;12.35;;
14599;SDS011;7386;45.586;12.854;2022-10-22T12:32:44;35.67;;;12.55;;
14599;SDS011;7386;45.586;12.854;2022-10-22T12:35:15;32.17;;;13.50;;
14599;SDS011;7386;45.586;12.854;2022-10-22T12:37:48;27.90;;;12.40;;
14599;SDS011;7386;45.586;12.854;2022-10-22T12:40:17;30.27;;;12.77;;
14599;SDS011;7386;45.586;12.854;2022-10-22T12:42:47;40.83;;;12.65;;
14599;SDS011;7386;45.586;12.854;2022-10-22T12:45:18;36.03;;;12.43;;
14599;SDS011;7386;45.586;12.854;2022-10-22T12:47:47;23.65;;;11.85;;
14599;SDS011;7386;45.586;12.854;2022-10-22T12:50:18;22.83;;;12.10;;
14599;SDS011;7386;45.586;12.854;2022-10-22T12:52:49;29.67;;;12.10;;
14599;SDS011;7386;45.586;12.854;2022-10-22T12:55:21;20.50;;;11.75;;
14599;SDS011;7386;45.586;12.854;2022-10-22T12:57:52;14.57;;;10.50;;
14599;SDS011;7386;45.586;12.854;2022-10-22T13:00:22;19.85;;;11.00;;
14599;SDS011;7386;45.586;12.854;2022-10-22T13:02:52;20.05;;;11.35;;
14599;SDS011;7386;45.586;12.854;2022-10-22T13:05:23;22.02;;;11.38;;
14599;SDS011;7386;45.586;12.854;2022-10-22T13:07:53;20.90;;;11.50;;
14599;SDS011;7386;45.586;12.854;2022-10-22T13:10:30;19.70;;;10.93;;
14599;SDS011;7386;45.586;12.854;2022-10-22T13:13:00;18.23;;;10.50;;
14599;SDS011;7386;45.586;12.854;2022-10-22T13:15:31;20.13;;;10.75;;
14599;SDS011;7386;45.586;12.854;2022-10-22T13:18:03;19.48;;;9.75;;
14599;SDS011;7386;45.586;12.854;2022-10-22T13:20:35;15.18;;;10.35;;
14599;SDS011;7386;45.586;12.854;2022-10-22T13:23:04;19.65;;;10.05;;
14599;SDS011;7386;45.586;12.854;2022-10-22T13:25:33;18.88;;;9.77;;
14599;SDS011;7386;45.586;12.854;2022-10-22T13:28:11;18.23;;;9.52;;
14599;SDS011;7386;45.586;12.854;2022-10-22T13:30:50;14.73;;;9.63;;
14599;SDS011;7386;45.586;12.854;2022-10-22T13:33:21;16.77;;;9.45;;
14599;SDS011;7386;45.586;12.854;2022-10-22T13:35:54;20.30;;;10.10;;
14599;SDS011;7386;45.586;12.854;2022-10-22T13:38:24;16.30;;;9.55;;
14599;SDS011;7386;45.586;12.854;2022-10-22T13:40:54;15.65;;;8.90;;
14599;SDS011;7386;45.586;12.854;2022-10-22T13:43:24;16.65;;;9.85;;
14599;SDS011;7386;45.586;12.854;2022-10-22T13:45:53;16.17;;;9.52;;
14599;SDS011;7386;45.586;12.854;2022-10-22T13:48:25;14.25;;;9.23;;
14599;SDS011;7386;45.586;12.854;2022-10-22T13:50:57;15.77;;;9.43;;
14599;SDS011;7386;45.586;12.854;2022-10-22T13:53:26;16.73;;;9.10;;
14599;SDS011;7386;45.586;12.854;2022-10-22T13:55:55;17.40;;;9.48;;
14599;SDS011;7386;45.586;12.854;2022-10-22T13:58:24;11.80;;;9.07;;
14599;SDS011;7386;45.586;12.854;2022-10-22T14:00:53;15.13;;;9.10;;
14599;SDS011;7386;45.586;12.854;2022-10-22T14:03:24;15.85;;;8.60;;
14599;SDS011;7386;45.586;12.854;2022-10-22T14:05:57;15.77;;;8.85;;
14599;SDS011;7386;45.586;12.854;2022-10-22T14:08:28;20.05;;;9.35;;
14599;SDS011;7386;45.586;12.854;2022-10-22T14:10:56;16.50;;;8.95;;
14599;SDS011;7386;45.586;12.854;2022-10-22T14:13:24;15.32;;;8.38;;
14599;SDS011;7386;45.586;12.854;2022-10-22T14:15:53;13.95;;;8.45;;
14599;SDS011;7386;45.586;12.854;2022-10-22T14:18:22;16.05;;;8.18;;
14599;SDS011;7386;45.586;12.854;2022-10-22T14:20:54;11.82;;;8.00;;
14599;SDS011;7386;45.586;12.854;2022-10-22T14:23:27;12.70;;;8.00;;
14599;SDS011;7386;45.586;12.854;2022-10-22T14:25:56;13.10;;;8.35;;
14599;SDS011;7386;45.586;12.854;2022-10-22T14:28:25;11.30;;;7.97;;
14599;SDS011;7386;45.586;12.854;2022-10-22T14:30:56;15.02;;;8.05;;
14599;SDS011;7386;45.586;12.854;2022-10-22T14:33:26;13.13;;;7.60;;
14599;SDS011;7386;45.586;12.854;2022-10-22T14:35:59;10.10;;;7.45;;
14599;SDS011;7386;45.586;12.854;2022-10-22T14:38:27;11.20;;;8.20;;
14599;SDS011;7386;45.586;12.854;2022-10-22T14:40:56;14.10;;;8.48;;
14599;SDS011;7386;45.586;12.854;2022-10-22T14:43:26;13.77;;;8.93;;
14599;SDS011;7386;45.586;12.854;2022-10-22T14:45:56;13.95;;;8.30;;
14599;SDS011;7386;45.586;12.854;2022-10-22T14:48:24;12.95;;;8.02;;
14599;SDS011;7386;45.586;12.854;2022-10-22T14:50:53;11.48;;;8.02;;
14599;SDS011;7386;45.586;12.854;2022-10-22T14:53:22;15.00;;;9.18;;
14599;SDS011;7386;45.586;12.854;2022-10-22T14:55:51;13.40;;;8.55;;